sensor_id;sensor_type;location;lat;lon;timestamp;P1;durP1;ratioP1;P2;durP2;ratioP2
21492;SDS011;10908;50.690;4.400;2024-01-16T00:00:17;9.73;;;3.58;;
21492;SDS011;10908;50.690;4.400;2024-01-16T00:02:43;15.38;;;3.78;;
21492;SDS011;10908;50.690;4.400;2024-01-16T00:05:10;10.60;;;3.47;;
21492;SDS011;10908;50.690;4.400;2024-01-16T00:07:38;10.55;;;3.47;;
21492;SDS011;10908;50.690;4.400;2024-01-16T00:10:06;12.05;;;3.63;;
21492;SDS011;10908;50.690;4.400;2024-01-16T00:12:33;11.32;;;3.30;;
21492;SDS011;10908;50.690;4.400;2024-01-16T00:14:59;10.85;;;3.60;;
21492;SDS011;10908;50.690;4.400;2024-01-16T00:17:25;9.27;;;3.53;;
21492;SDS011;10908;50.690;4.400;2024-01-16T00:19:50;12.48;;;4.00;;
21492;SDS011;10908;50.690;4.400;2024-01-16T00:22:16;11.70;;;3.97;;
21492;SDS011;10908;50.690;4.400;2024-01-16T00:24:41;10.27;;;3.60;;
21492;SDS011;10908;50.690;4.400;2024-01-16T00:27:07;10.50;;;3.40;;
21492;SDS011;10908;50.690;4.400;2024-01-16T00:29:33;13.00;;;3.42;;
21492;SDS011;10908;50.690;4.400;2024-01-16T00:31:58;10.45;;;3.42;;
21492;SDS011;10908;50.690;4.400;2024-01-16T00:34:24;8.43;;;3.30;;
21492;SDS011;10908;50.690;4.400;2024-01-16T00:36:49;16.00;;;3.65;;
21492;SDS011;10908;50.690;4.400;2024-01-16T00:39:15;12.30;;;3.63;;
21492;SDS011;10908;50.690;4.400;2024-01-16T00:41:41;10.52;;;3.40;;
21492;SDS011;10908;50.690;4.400;2024-01-16T00:44:06;15.02;;;4.00;;
21492;SDS011;10908;50.690;4.400;2024-01-16T00:46:33;7.50;;;2.72;;
21492;SDS011;10908;50.690;4.400;2024-01-16T00:48:58;13.13;;;3.15;;
21492;SDS011;10908;50.690;4.400;2024-01-16T00:51:24;17.15;;;3.67;;
21492;SDS011;10908;50.690;4.400;2024-01-16T00:53:50;16.27;;;3.78;;
21492;SDS011;10908;50.690;4.400;2024-01-16T00:56:16;10.88;;;3.13;;
21492;SDS011;10908;50.690;4.400;2024-01-16T00:58:41;11.93;;;2.97;;
21492;SDS011;10908;50.690;4.400;2024-01-16T01:01:07;14.55;;;3.42;;
21492;SDS011;10908;50.690;4.400;2024-01-16T01:03:33;10.32;;;3.42;;
21492;SDS011;10908;50.690;4.400;2024-01-16T01:05:59;11.63;;;3.13;;
21492;SDS011;10908;50.690;4.400;2024-01-16T01:08:25;14.00;;;3.55;;
21492;SDS011;10908;50.690;4.400;2024-01-16T01:10:51;11.95;;;2.88;;
21492;SDS011;10908;50.690;4.400;2024-01-16T01:13:17;11.40;;;3.00;;
21492;SDS011;10908;50.690;4.400;2024-01-16T01:15:42;10.57;;;3.30;;
21492;SDS011;10908;50.690;4.400;2024-01-16T01:18:08;12.38;;;3.50;;
21492;SDS011;10908;50.690;4.400;2024-01-16T01:20:34;11.05;;;3.03;;
21492;SDS011;10908;50.690;4.400;2024-01-16T01:22:59;10.60;;;2.95;;
21492;SDS011;10908;50.690;4.400;2024-01-16T01:25:25;12.45;;;3.42;;
21492;SDS011;10908;50.690;4.400;2024-01-16T01:27:51;10.75;;;3.42;;
21492;SDS011;10908;50.690;4.400;2024-01-16T01:30:17;14.80;;;3.33;;
21492;SDS011;10908;50.690;4.400;2024-01-16T01:32:43;9.75;;;3.53;;
21492;SDS011;10908;50.690;4.400;2024-01-16T01:35:09;10.32;;;2.95;;
21492;SDS011;10908;50.690;4.400;2024-01-16T01:37:36;14.60;;;3.25;;
21492;SDS011;10908;50.690;4.400;2024-01-16T01:40:02;11.60;;;3.35;;
21492;SDS011;10908;50.690;4.400;2024-01-16T01:42:28;9.77;;;2.83;;
21492;SDS011;10908;50.690;4.400;2024-01-16T01:44:54;11.80;;;3.20;;
21492;SDS011;10908;50.690;4.400;2024-01-16T01:47:20;11.80;;;3.10;;
21492;SDS011;10908;50.690;4.400;2024-01-16T01:49:46;10.60;;;3.40;;
21492;SDS011;10908;50.690;4.400;2024-01-16T01:52:11;9.73;;;3.03;;
21492;SDS011;10908;50.690;4.400;2024-01-16T01:54:37;13.93;;;3.05;;
21492;SDS011;10908;50.690;4.400;2024-01-16T01:57:04;12.07;;;3.35;;
21492;SDS011;10908;50.690;4.400;2024-01-16T01:59:32;9.48;;;2.75;;
21492;SDS011;10908;50.690;4.400;2024-01-16T02:01:58;13.05;;;2.90;;
21492;SDS011;10908;50.690;4.400;2024-01-16T02:04:24;8.35;;;2.50;;
21492;SDS011;10908;50.690;4.400;2024-01-16T02:06:51;10.95;;;2.80;;
21492;SDS011;10908;50.690;4.400;2024-01-16T02:09:17;8.20;;;2.53;;
21492;SDS011;10908;50.690;4.400;2024-01-16T02:11:43;14.02;;;2.78;;
21492;SDS011;10908;50.690;4.400;2024-01-16T02:14:08;9.38;;;2.78;;
21492;SDS011;10908;50.690;4.400;2024-01-16T02:16:35;11.13;;;3.10;;
21492;SDS011;10908;50.690;4.400;2024-01-16T02:19:03;10.23;;;3.28;;
21492;SDS011;10908;50.690;4.400;2024-01-16T02:21:31;12.25;;;2.80;;
21492;SDS011;10908;50.690;4.400;2024-01-16T02:24:13;12.30;;;2.85;;
21492;SDS011;10908;50.690;4.400;2024-01-16T02:26:40;11.10;;;2.92;;
21492;SDS011;10908;50.690;4.400;2024-01-16T02:29:06;13.50;;;3.10;;
21492;SDS011;10908;50.690;4.400;2024-01-16T02:31:32;11.50;;;3.10;;
21492;SDS011;10908;50.690;4.400;2024-01-16T02:33:58;7.97;;;3.00;;
21492;SDS011;10908;50.690;4.400;2024-01-16T02:36:27;11.10;;;3.00;;
21492;SDS011;10908;50.690;4.400;2024-01-16T02:38:54;10.10;;;3.22;;
21492;SDS011;10908;50.690;4.400;2024-01-16T02:41:20;12.43;;;3.55;;
21492;SDS011;10908;50.690;4.400;2024-01-16T02:43:46;13.75;;;2.80;;
21492;SDS011;10908;50.690;4.400;2024-01-16T02:46:12;13.63;;;3.00;;
21492;SDS011;10908;50.690;4.400;2024-01-16T02:48:38;9.23;;;2.70;;
21492;SDS011;10908;50.690;4.400;2024-01-16T02:51:04;18.90;;;3.17;;
21492;SDS011;10908;50.690;4.400;2024-01-16T02:53:30;10.68;;;3.13;;
21492;SDS011;10908;50.690;4.400;2024-01-16T02:55:56;13.13;;;3.45;;
21492;SDS011;10908;50.690;4.400;2024-01-16T02:58:24;9.35;;;2.97;;
21492;SDS011;10908;50.690;4.400;2024-01-16T03:00:53;16.55;;;3.53;;
21492;SDS011;10908;50.690;4.400;2024-01-16T03:03:19;13.20;;;3.30;;
21492;SDS011;10908;50.690;4.400;2024-01-16T03:05:45;16.45;;;4.00;;
21492;SDS011;10908;50.690;4.400;2024-01-16T03:08:11;14.55;;;3.90;;
21492;SDS011;10908;50.690;4.400;2024-01-16T03:10:37;12.50;;;3.47;;
21492;SDS011;10908;50.690;4.400;2024-01-16T03:13:02;12.07;;;3.60;;
21492;SDS011;10908;50.690;4.400;2024-01-16T03:15:28;10.18;;;3.63;;
21492;SDS011;10908;50.690;4.400;2024-01-16T03:17:56;12.10;;;3.92;;
21492;SDS011;10908;50.690;4.400;2024-01-16T03:20:22;16.55;;;4.32;;
21492;SDS011;10908;50.690;4.400;2024-01-16T03:22:48;9.27;;;3.70;;
21492;SDS011;10908;50.690;4.400;2024-01-16T03:25:14;11.13;;;3.50;;
21492;SDS011;10908;50.690;4.400;2024-01-16T03:27:40;10.55;;;3.63;;
21492;SDS011;10908;50.690;4.400;2024-01-16T03:30:06;11.38;;;3.42;;
21492;SDS011;10908;50.690;4.400;2024-01-16T03:32:33;14.07;;;3.97;;
21492;SDS011;10908;50.690;4.400;2024-01-16T03:35:00;11.07;;;3.70;;
21492;SDS011;10908;50.690;4.400;2024-01-16T03:37:25;13.50;;;4.00;;
21492;SDS011;10908;50.690;4.400;2024-01-16T03:39:51;13.23;;;3.40;;
21492;SDS011;10908;50.690;4.400;2024-01-16T03:42:17;14.20;;;3.83;;
21492;SDS011;10908;50.690;4.400;2024-01-16T03:44:43;12.13;;;3.85;;
21492;SDS011;10908;50.690;4.400;2024-01-16T03:47:08;16.00;;;3.65;;
21492;SDS011;10908;50.690;4.400;2024-01-16T03:49:34;15.35;;;4.00;;
21492;SDS011;10908;50.690;4.400;2024-01-16T03:52:00;14.75;;;4.10;;
21492;SDS011;10908;50.690;4.400;2024-01-16T03:54:26;12.20;;;3.85;;
21492;SDS011;10908;50.690;4.400;2024-01-16T03:56:51;11.18;;;3.58;;
21492;SDS011;10908;50.690;4.400;2024-01-16T03:59:18;12.63;;;4.22;;
21492;SDS011;10908;50.690;4.400;2024-01-16T04:01:43;15.38;;;3.85;;
21492;SDS011;10908;50.690;4.400;2024-01-16T04:04:10;12.75;;;3.80;;
21492;SDS011;10908;50.690;4.400;2024-01-16T04:06:36;16.20;;;4.00;;
21492;SDS011;10908;50.690;4.400;2024-01-16T04:09:02;15.70;;;3.40;;
21492;SDS011;10908;50.690;4.400;2024-01-16T04:11:28;12.90;;;3.05;;
21492;SDS011;10908;50.690;4.400;2024-01-16T04:13:54;12.77;;;3.65;;
21492;SDS011;10908;50.690;4.400;2024-01-16T04:16:20;10.88;;;3.75;;
21492;SDS011;10908;50.690;4.400;2024-01-16T04:18:46;15.00;;;3.88;;
21492;SDS011;10908;50.690;4.400;2024-01-16T04:21:12;14.55;;;4.32;;
21492;SDS011;10908;50.690;4.400;2024-01-16T04:23:38;11.02;;;3.70;;
21492;SDS011;10908;50.690;4.400;2024-01-16T04:26:04;16.38;;;4.32;;
21492;SDS011;10908;50.690;4.400;2024-01-16T04:28:29;12.77;;;3.88;;
21492;SDS011;10908;50.690;4.400;2024-01-16T04:30:55;14.45;;;3.80;;
21492;SDS011;10908;50.690;4.400;2024-01-16T04:33:21;13.38;;;3.95;;
21492;SDS011;10908;50.690;4.400;2024-01-16T04:35:47;13.88;;;3.78;;
21492;SDS011;10908;50.690;4.400;2024-01-16T04:38:12;12.98;;;3.75;;
21492;SDS011;10908;50.690;4.400;2024-01-16T04:40:38;13.63;;;3.85;;
21492;SDS011;10908;50.690;4.400;2024-01-16T04:43:03;8.57;;;3.40;;
21492;SDS011;10908;50.690;4.400;2024-01-16T04:45:29;14.50;;;3.95;;
21492;SDS011;10908;50.690;4.400;2024-01-16T04:47:55;13.77;;;3.63;;
21492;SDS011;10908;50.690;4.400;2024-01-16T04:50:20;13.10;;;3.95;;
21492;SDS011;10908;50.690;4.400;2024-01-16T04:52:46;15.57;;;3.85;;
21492;SDS011;10908;50.690;4.400;2024-01-16T04:55:12;12.70;;;3.72;;
21492;SDS011;10908;50.690;4.400;2024-01-16T04:57:37;11.07;;;3.60;;
21492;SDS011;10908;50.690;4.400;2024-01-16T05:00:03;11.77;;;3.83;;
21492;SDS011;10908;50.690;4.400;2024-01-16T05:02:32;9.68;;;3.65;;
21492;SDS011;10908;50.690;4.400;2024-01-16T05:04:59;14.07;;;3.90;;
21492;SDS011;10908;50.690;4.400;2024-01-16T05:07:25;17.67;;;4.10;;
21492;SDS011;10908;50.690;4.400;2024-01-16T05:09:51;13.70;;;4.07;;
21492;SDS011;10908;50.690;4.400;2024-01-16T05:12:17;11.90;;;3.60;;
21492;SDS011;10908;50.690;4.400;2024-01-16T05:14:43;11.80;;;3.88;;
21492;SDS011;10908;50.690;4.400;2024-01-16T05:17:08;14.40;;;3.65;;
21492;SDS011;10908;50.690;4.400;2024-01-16T05:19:34;10.25;;;3.65;;
21492;SDS011;10908;50.690;4.400;2024-01-16T05:21:59;13.63;;;3.97;;
21492;SDS011;10908;50.690;4.400;2024-01-16T05:24:25;11.25;;;3.70;;
21492;SDS011;10908;50.690;4.400;2024-01-16T05:26:51;12.15;;;3.72;;
21492;SDS011;10908;50.690;4.400;2024-01-16T05:29:18;13.25;;;4.15;;
21492;SDS011;10908;50.690;4.400;2024-01-16T05:31:44;15.13;;;4.25;;
21492;SDS011;10908;50.690;4.400;2024-01-16T05:34:10;9.93;;;3.33;;
21492;SDS011;10908;50.690;4.400;2024-01-16T05:36:36;14.77;;;4.07;;
21492;SDS011;10908;50.690;4.400;2024-01-16T05:39:02;10.55;;;3.80;;
21492;SDS011;10908;50.690;4.400;2024-01-16T05:41:31;11.68;;;3.53;;
21492;SDS011;10908;50.690;4.400;2024-01-16T05:43:58;11.13;;;3.78;;
21492;SDS011;10908;50.690;4.400;2024-01-16T05:46:24;12.88;;;3.70;;
21492;SDS011;10908;50.690;4.400;2024-01-16T05:48:49;10.48;;;3.90;;
21492;SDS011;10908;50.690;4.400;2024-01-16T05:51:15;14.10;;;4.35;;
21492;SDS011;10908;50.690;4.400;2024-01-16T05:53:40;12.00;;;3.97;;
21492;SDS011;10908;50.690;4.400;2024-01-16T05:56:06;10.77;;;3.80;;
21492;SDS011;10908;50.690;4.400;2024-01-16T05:58:32;16.02;;;3.92;;
21492;SDS011;10908;50.690;4.400;2024-01-16T06:01:03;12.88;;;3.42;;
21492;SDS011;10908;50.690;4.400;2024-01-16T06:03:29;15.52;;;3.80;;
21492;SDS011;10908;50.690;4.400;2024-01-16T06:05:55;12.73;;;3.67;;
21492;SDS011;10908;50.690;4.400;2024-01-16T06:08:21;16.23;;;4.25;;
21492;SDS011;10908;50.690;4.400;2024-01-16T06:10:46;10.48;;;3.30;;
21492;SDS011;10908;50.690;4.400;2024-01-16T06:13:12;10.63;;;3.30;;
21492;SDS011;10908;50.690;4.400;2024-01-16T06:15:37;11.13;;;3.60;;
21492;SDS011;10908;50.690;4.400;2024-01-16T06:18:03;12.80;;;3.78;;
21492;SDS011;10908;50.690;4.400;2024-01-16T06:20:29;9.02;;;3.63;;
21492;SDS011;10908;50.690;4.400;2024-01-16T06:22:55;11.50;;;3.53;;
21492;SDS011;10908;50.690;4.400;2024-01-16T06:25:21;8.68;;;3.63;;
21492;SDS011;10908;50.690;4.400;2024-01-16T06:27:47;13.18;;;4.00;;
21492;SDS011;10908;50.690;4.400;2024-01-16T06:30:13;13.95;;;3.80;;
21492;SDS011;10908;50.690;4.400;2024-01-16T06:32:38;10.93;;;4.95;;
21492;SDS011;10908;50.690;4.400;2024-01-16T06:35:05;14.15;;;4.10;;
21492;SDS011;10908;50.690;4.400;2024-01-16T06:37:32;11.15;;;3.50;;
21492;SDS011;10908;50.690;4.400;2024-01-16T06:39:58;14.80;;;3.88;;
21492;SDS011;10908;50.690;4.400;2024-01-16T06:42:24;16.25;;;4.30;;
21492;SDS011;10908;50.690;4.400;2024-01-16T06:44:49;17.50;;;4.45;;
21492;SDS011;10908;50.690;4.400;2024-01-16T06:47:15;9.75;;;3.38;;
21492;SDS011;10908;50.690;4.400;2024-01-16T06:49:40;9.18;;;3.35;;
21492;SDS011;10908;50.690;4.400;2024-01-16T06:52:07;12.85;;;4.32;;
21492;SDS011;10908;50.690;4.400;2024-01-16T06:54:34;14.27;;;4.40;;
21492;SDS011;10908;50.690;4.400;2024-01-16T06:56:59;17.92;;;4.57;;
21492;SDS011;10908;50.690;4.400;2024-01-16T06:59:25;8.77;;;3.22;;
21492;SDS011;10908;50.690;4.400;2024-01-16T07:01:51;15.63;;;5.07;;
21492;SDS011;10908;50.690;4.400;2024-01-16T07:04:16;11.52;;;4.30;;
21492;SDS011;10908;50.690;4.400;2024-01-16T07:06:42;14.32;;;5.60;;
21492;SDS011;10908;50.690;4.400;2024-01-16T07:09:08;12.07;;;3.90;;
21492;SDS011;10908;50.690;4.400;2024-01-16T07:11:38;14.95;;;4.20;;
21492;SDS011;10908;50.690;4.400;2024-01-16T07:14:07;12.95;;;4.10;;
21492;SDS011;10908;50.690;4.400;2024-01-16T07:16:34;14.80;;;5.57;;
21492;SDS011;10908;50.690;4.400;2024-01-16T07:19:00;12.77;;;4.35;;
21492;SDS011;10908;50.690;4.400;2024-01-16T07:21:26;15.02;;;3.92;;
21492;SDS011;10908;50.690;4.400;2024-01-16T07:23:52;13.95;;;4.65;;
21492;SDS011;10908;50.690;4.400;2024-01-16T07:26:18;14.00;;;5.13;;
21492;SDS011;10908;50.690;4.400;2024-01-16T07:28:44;13.15;;;5.13;;
21492;SDS011;10908;50.690;4.400;2024-01-16T07:31:10;17.55;;;6.00;;
21492;SDS011;10908;50.690;4.400;2024-01-16T07:33:36;11.80;;;3.97;;
21492;SDS011;10908;50.690;4.400;2024-01-16T07:36:02;11.48;;;4.13;;
21492;SDS011;10908;50.690;4.400;2024-01-16T07:38:28;11.18;;;3.72;;
21492;SDS011;10908;50.690;4.400;2024-01-16T07:40:53;14.32;;;4.50;;
21492;SDS011;10908;50.690;4.400;2024-01-16T07:43:19;13.25;;;4.38;;
21492;SDS011;10908;50.690;4.400;2024-01-16T07:45:44;15.38;;;4.50;;
21492;SDS011;10908;50.690;4.400;2024-01-16T07:48:10;13.43;;;4.97;;
21492;SDS011;10908;50.690;4.400;2024-01-16T07:50:35;16.92;;;4.60;;
21492;SDS011;10908;50.690;4.400;2024-01-16T07:53:01;12.85;;;4.30;;
21492;SDS011;10908;50.690;4.400;2024-01-16T07:55:27;11.38;;;4.43;;
21492;SDS011;10908;50.690;4.400;2024-01-16T07:57:53;10.45;;;4.40;;
21492;SDS011;10908;50.690;4.400;2024-01-16T08:00:20;9.57;;;3.78;;
21492;SDS011;10908;50.690;4.400;2024-01-16T08:02:47;13.02;;;4.25;;
21492;SDS011;10908;50.690;4.400;2024-01-16T08:05:12;11.95;;;4.10;;
21492;SDS011;10908;50.690;4.400;2024-01-16T08:07:38;12.63;;;4.43;;
21492;SDS011;10908;50.690;4.400;2024-01-16T08:10:04;14.40;;;4.88;;
21492;SDS011;10908;50.690;4.400;2024-01-16T08:12:29;16.58;;;5.90;;
21492;SDS011;10908;50.690;4.400;2024-01-16T08:14:55;15.77;;;4.85;;
21492;SDS011;10908;50.690;4.400;2024-01-16T08:17:21;13.32;;;4.82;;
21492;SDS011;10908;50.690;4.400;2024-01-16T08:19:46;15.93;;;5.28;;
21492;SDS011;10908;50.690;4.400;2024-01-16T08:22:12;16.20;;;6.45;;
21492;SDS011;10908;50.690;4.400;2024-01-16T08:24:38;20.80;;;6.32;;
21492;SDS011;10908;50.690;4.400;2024-01-16T08:27:04;17.30;;;5.50;;
21492;SDS011;10908;50.690;4.400;2024-01-16T08:29:30;15.48;;;5.53;;
21492;SDS011;10908;50.690;4.400;2024-01-16T08:31:55;15.63;;;5.20;;
21492;SDS011;10908;50.690;4.400;2024-01-16T08:34:21;17.83;;;6.70;;
21492;SDS011;10908;50.690;4.400;2024-01-16T08:36:46;13.32;;;5.60;;
21492;SDS011;10908;50.690;4.400;2024-01-16T08:39:12;15.82;;;5.18;;
21492;SDS011;10908;50.690;4.400;2024-01-16T08:41:38;16.45;;;5.72;;
21492;SDS011;10908;50.690;4.400;2024-01-16T08:44:04;16.15;;;5.70;;
21492;SDS011;10908;50.690;4.400;2024-01-16T08:46:29;13.65;;;5.03;;
21492;SDS011;10908;50.690;4.400;2024-01-16T08:48:55;15.70;;;6.13;;
21492;SDS011;10908;50.690;4.400;2024-01-16T08:51:21;17.23;;;5.70;;
21492;SDS011;10908;50.690;4.400;2024-01-16T08:53:47;15.18;;;5.30;;
21492;SDS011;10908;50.690;4.400;2024-01-16T08:56:12;13.10;;;4.90;;
21492;SDS011;10908;50.690;4.400;2024-01-16T08:58:38;21.10;;;7.60;;
21492;SDS011;10908;50.690;4.400;2024-01-16T09:01:05;19.17;;;5.68;;
21492;SDS011;10908;50.690;4.400;2024-01-16T09:03:34;14.32;;;5.25;;
21492;SDS011;10908;50.690;4.400;2024-01-16T09:06:00;12.88;;;4.85;;
21492;SDS011;10908;50.690;4.400;2024-01-16T09:08:26;15.85;;;5.15;;
21492;SDS011;10908;50.690;4.400;2024-01-16T09:10:52;14.60;;;5.15;;
21492;SDS011;10908;50.690;4.400;2024-01-16T09:13:18;19.38;;;6.38;;
21492;SDS011;10908;50.690;4.400;2024-01-16T09:15:48;16.48;;;5.68;;
21492;SDS011;10908;50.690;4.400;2024-01-16T09:18:14;21.60;;;5.53;;
21492;SDS011;10908;50.690;4.400;2024-01-16T09:20:41;15.88;;;5.65;;
21492;SDS011;10908;50.690;4.400;2024-01-16T09:23:07;23.33;;;7.03;;
21492;SDS011;10908;50.690;4.400;2024-01-16T09:25:34;26.27;;;7.05;;
21492;SDS011;10908;50.690;4.400;2024-01-16T09:28:00;19.15;;;6.57;;
21492;SDS011;10908;50.690;4.400;2024-01-16T09:30:26;19.90;;;6.18;;
21492;SDS011;10908;50.690;4.400;2024-01-16T09:32:51;16.67;;;5.55;;
21492;SDS011;10908;50.690;4.400;2024-01-16T09:35:17;18.48;;;5.63;;
21492;SDS011;10908;50.690;4.400;2024-01-16T09:37:43;15.50;;;6.03;;
21492;SDS011;10908;50.690;4.400;2024-01-16T09:40:09;14.73;;;5.20;;
21492;SDS011;10908;50.690;4.400;2024-01-16T09:42:35;18.25;;;5.13;;
21492;SDS011;10908;50.690;4.400;2024-01-16T09:45:01;11.90;;;5.20;;
21492;SDS011;10908;50.690;4.400;2024-01-16T09:47:30;13.57;;;4.72;;
21492;SDS011;10908;50.690;4.400;2024-01-16T09:49:57;12.05;;;4.70;;
21492;SDS011;10908;50.690;4.400;2024-01-16T09:52:25;15.18;;;4.45;;
21492;SDS011;10908;50.690;4.400;2024-01-16T09:54:51;16.27;;;5.20;;
21492;SDS011;10908;50.690;4.400;2024-01-16T09:57:18;14.40;;;5.20;;
21492;SDS011;10908;50.690;4.400;2024-01-16T09:59:48;11.30;;;4.43;;
21492;SDS011;10908;50.690;4.400;2024-01-16T10:02:14;13.32;;;4.80;;
21492;SDS011;10908;50.690;4.400;2024-01-16T10:04:42;12.75;;;4.57;;
21492;SDS011;10908;50.690;4.400;2024-01-16T10:07:09;14.07;;;4.72;;
21492;SDS011;10908;50.690;4.400;2024-01-16T10:09:37;10.55;;;4.32;;
21492;SDS011;10908;50.690;4.400;2024-01-16T10:12:04;13.23;;;4.90;;
21492;SDS011;10908;50.690;4.400;2024-01-16T10:14:33;14.10;;;4.43;;
21492;SDS011;10908;50.690;4.400;2024-01-16T10:17:02;12.43;;;4.22;;
21492;SDS011;10908;50.690;4.400;2024-01-16T10:19:49;13.70;;;4.55;;
21492;SDS011;10908;50.690;4.400;2024-01-16T10:22:21;13.95;;;4.82;;
21492;SDS011;10908;50.690;4.400;2024-01-16T10:24:50;15.38;;;5.13;;
21492;SDS011;10908;50.690;4.400;2024-01-16T10:27:28;11.80;;;4.90;;
21492;SDS011;10908;50.690;4.400;2024-01-16T10:29:56;15.15;;;4.70;;
21492;SDS011;10908;50.690;4.400;2024-01-16T10:35:05;15.90;;;4.53;;
21492;SDS011;10908;50.690;4.400;2024-01-16T10:37:45;12.23;;;4.75;;
21492;SDS011;10908;50.690;4.400;2024-01-16T10:42:59;12.40;;;4.18;;
21492;SDS011;10908;50.690;4.400;2024-01-16T10:45:26;11.13;;;4.45;;
21492;SDS011;10908;50.690;4.400;2024-01-16T10:48:02;10.88;;;4.22;;
21492;SDS011;10908;50.690;4.400;2024-01-16T10:50:32;14.95;;;4.38;;
21492;SDS011;10908;50.690;4.400;2024-01-16T10:53:05;14.25;;;4.72;;
21492;SDS011;10908;50.690;4.400;2024-01-16T10:55:33;11.40;;;3.88;;
21492;SDS011;10908;50.690;4.400;2024-01-16T10:58:14;11.32;;;4.03;;
21492;SDS011;10908;50.690;4.400;2024-01-16T11:00:40;11.18;;;4.00;;
21492;SDS011;10908;50.690;4.400;2024-01-16T11:03:09;12.98;;;3.90;;
21492;SDS011;10908;50.690;4.400;2024-01-16T11:05:41;12.40;;;3.90;;
21492;SDS011;10908;50.690;4.400;2024-01-16T11:08:08;18.52;;;4.18;;
21492;SDS011;10908;50.690;4.400;2024-01-16T11:10:34;10.38;;;3.92;;
21492;SDS011;10908;50.690;4.400;2024-01-16T11:13:01;9.35;;;3.63;;
21492;SDS011;10908;50.690;4.400;2024-01-16T11:15:29;13.68;;;4.05;;
21492;SDS011;10908;50.690;4.400;2024-01-16T11:17:57;13.52;;;4.03;;
21492;SDS011;10908;50.690;4.400;2024-01-16T11:20:24;9.43;;;3.35;;
21492;SDS011;10908;50.690;4.400;2024-01-16T11:22:50;10.45;;;3.75;;
21492;SDS011;10908;50.690;4.400;2024-01-16T11:25:19;14.35;;;3.80;;
21492;SDS011;10908;50.690;4.400;2024-01-16T11:27:46;10.73;;;3.70;;
21492;SDS011;10908;50.690;4.400;2024-01-16T11:30:29;13.00;;;3.65;;
21492;SDS011;10908;50.690;4.400;2024-01-16T11:32:58;11.52;;;3.88;;
21492;SDS011;10908;50.690;4.400;2024-01-16T11:35:34;12.35;;;3.85;;
21492;SDS011;10908;50.690;4.400;2024-01-16T11:38:15;9.60;;;3.90;;
21492;SDS011;10908;50.690;4.400;2024-01-16T11:40:42;9.20;;;3.83;;
21492;SDS011;10908;50.690;4.400;2024-01-16T11:46:04;9.43;;;3.97;;
21492;SDS011;10908;50.690;4.400;2024-01-16T11:48:33;11.77;;;3.90;;
21492;SDS011;10908;50.690;4.400;2024-01-16T11:50:59;9.60;;;3.50;;
21492;SDS011;10908;50.690;4.400;2024-01-16T11:53:30;14.77;;;3.75;;
21492;SDS011;10908;50.690;4.400;2024-01-16T12:01:32;11.23;;;3.55;;
21492;SDS011;10908;50.690;4.400;2024-01-16T12:04:04;11.68;;;4.00;;
21492;SDS011;10908;50.690;4.400;2024-01-16T12:06:31;13.90;;;3.15;;
21492;SDS011;10908;50.690;4.400;2024-01-16T12:09:13;10.80;;;3.00;;
21492;SDS011;10908;50.690;4.400;2024-01-16T12:11:40;10.80;;;3.55;;
21492;SDS011;10908;50.690;4.400;2024-01-16T12:14:08;10.70;;;3.33;;
21492;SDS011;10908;50.690;4.400;2024-01-16T12:16:33;10.25;;;3.30;;
21492;SDS011;10908;50.690;4.400;2024-01-16T12:21:33;12.00;;;3.30;;
21492;SDS011;10908;50.690;4.400;2024-01-16T12:24:03;10.73;;;3.92;;
21492;SDS011;10908;50.690;4.400;2024-01-16T12:26:29;10.15;;;3.78;;
21492;SDS011;10908;50.690;4.400;2024-01-16T12:28:55;15.75;;;3.72;;
21492;SDS011;10908;50.690;4.400;2024-01-16T12:31:21;8.15;;;2.70;;
21492;SDS011;10908;50.690;4.400;2024-01-16T12:33:47;9.10;;;3.80;;
21492;SDS011;10908;50.690;4.400;2024-01-16T12:36:13;10.15;;;4.00;;
21492;SDS011;10908;50.690;4.400;2024-01-16T12:38:40;10.00;;;3.35;;
21492;SDS011;10908;50.690;4.400;2024-01-16T12:41:07;8.55;;;3.03;;
21492;SDS011;10908;50.690;4.400;2024-01-16T12:43:35;7.13;;;2.70;;
21492;SDS011;10908;50.690;4.400;2024-01-16T12:46:02;10.98;;;2.85;;
21492;SDS011;10908;50.690;4.400;2024-01-16T12:48:28;8.30;;;2.90;;
21492;SDS011;10908;50.690;4.400;2024-01-16T12:51:01;10.77;;;3.20;;
21492;SDS011;10908;50.690;4.400;2024-01-16T12:53:27;7.85;;;2.85;;
21492;SDS011;10908;50.690;4.400;2024-01-16T12:55:57;6.63;;;2.60;;
21492;SDS011;10908;50.690;4.400;2024-01-16T12:58:33;9.57;;;3.10;;
21492;SDS011;10908;50.690;4.400;2024-01-16T13:03:48;8.95;;;2.60;;
21492;SDS011;10908;50.690;4.400;2024-01-16T13:06:22;12.25;;;3.60;;
21492;SDS011;10908;50.690;4.400;2024-01-16T13:08:48;9.88;;;2.88;;
21492;SDS011;10908;50.690;4.400;2024-01-16T13:11:14;7.43;;;3.00;;
21492;SDS011;10908;50.690;4.400;2024-01-16T13:13:44;8.85;;;2.80;;
21492;SDS011;10908;50.690;4.400;2024-01-16T13:16:11;7.40;;;3.10;;
21492;SDS011;10908;50.690;4.400;2024-01-16T13:18:37;8.38;;;2.78;;
21492;SDS011;10908;50.690;4.400;2024-01-16T13:21:03;10.57;;;2.78;;
21492;SDS011;10908;50.690;4.400;2024-01-16T13:23:29;9.43;;;3.13;;
21492;SDS011;10908;50.690;4.400;2024-01-16T13:25:55;9.68;;;3.08;;
21492;SDS011;10908;50.690;4.400;2024-01-16T13:28:21;9.10;;;3.10;;
21492;SDS011;10908;50.690;4.400;2024-01-16T13:30:47;13.07;;;3.00;;
21492;SDS011;10908;50.690;4.400;2024-01-16T13:33:14;9.63;;;3.00;;
21492;SDS011;10908;50.690;4.400;2024-01-16T13:35:44;8.55;;;3.38;;
21492;SDS011;10908;50.690;4.400;2024-01-16T13:38:11;9.40;;;2.85;;
21492;SDS011;10908;50.690;4.400;2024-01-16T13:40:38;9.25;;;3.40;;
21492;SDS011;10908;50.690;4.400;2024-01-16T13:43:03;7.93;;;2.83;;
21492;SDS011;10908;50.690;4.400;2024-01-16T13:45:31;7.55;;;3.33;;
21492;SDS011;10908;50.690;4.400;2024-01-16T13:47:58;7.50;;;2.95;;
21492;SDS011;10908;50.690;4.400;2024-01-16T13:50:26;7.18;;;2.60;;
21492;SDS011;10908;50.690;4.400;2024-01-16T13:52:52;7.95;;;2.75;;
21492;SDS011;10908;50.690;4.400;2024-01-16T13:55:19;7.35;;;2.70;;
21492;SDS011;10908;50.690;4.400;2024-01-16T13:57:44;8.35;;;2.85;;
21492;SDS011;10908;50.690;4.400;2024-01-16T14:00:11;6.70;;;2.95;;
21492;SDS011;10908;50.690;4.400;2024-01-16T14:02:40;6.65;;;2.90;;
21492;SDS011;10908;50.690;4.400;2024-01-16T14:05:12;8.00;;;3.13;;
21492;SDS011;10908;50.690;4.400;2024-01-16T14:07:49;7.78;;;3.03;;
21492;SDS011;10908;50.690;4.400;2024-01-16T14:10:17;8.88;;;2.95;;
21492;SDS011;10908;50.690;4.400;2024-01-16T14:12:45;10.60;;;3.13;;
21492;SDS011;10908;50.690;4.400;2024-01-16T14:15:11;9.98;;;3.38;;
21492;SDS011;10908;50.690;4.400;2024-01-16T14:17:51;7.43;;;2.90;;
21492;SDS011;10908;50.690;4.400;2024-01-16T14:20:18;10.77;;;3.45;;
21492;SDS011;10908;50.690;4.400;2024-01-16T14:22:51;10.63;;;3.10;;
21492;SDS011;10908;50.690;4.400;2024-01-16T14:25:21;10.93;;;3.60;;
21492;SDS011;10908;50.690;4.400;2024-01-16T14:27:57;9.20;;;2.83;;
21492;SDS011;10908;50.690;4.400;2024-01-16T14:30:25;13.77;;;3.13;;
21492;SDS011;10908;50.690;4.400;2024-01-16T14:32:51;10.30;;;3.30;;
21492;SDS011;10908;50.690;4.400;2024-01-16T14:37:51;9.98;;;2.95;;
21492;SDS011;10908;50.690;4.400;2024-01-16T14:40:16;9.10;;;2.95;;
21492;SDS011;10908;50.690;4.400;2024-01-16T14:42:52;6.97;;;2.80;;
21492;SDS011;10908;50.690;4.400;2024-01-16T14:45:19;9.13;;;3.03;;
21492;SDS011;10908;50.690;4.400;2024-01-16T14:47:46;8.25;;;2.72;;
21492;SDS011;10908;50.690;4.400;2024-01-16T14:50:12;12.15;;;3.70;;
21492;SDS011;10908;50.690;4.400;2024-01-16T14:52:39;8.15;;;3.42;;
21492;SDS011;10908;50.690;4.400;2024-01-16T14:55:05;9.48;;;3.88;;
21492;SDS011;10908;50.690;4.400;2024-01-16T14:57:34;12.18;;;6.57;;